Time;durP1;ratioP1;P1;durP2;ratioP2;P2;SDS_P1;SDS_P2;PMS_P1;PMS_P2;Temp;Humidity;BMP_temperature;BMP_pressure;BME280_temperature;BME280_humidity;BME280_pressure;Samples;Min_cycle;Max_cycle;Signal;HPM_P1;HPM_P2
2022/03/30 00:07:56;;;;;;;2.90;2.05;;;;;;;;;;20225257;29;20080;-89
2022/03/30 00:17:58;;;;;;;3.17;2.08;;;;;;;;;;20189475;29;20415;-88
2022/03/30 00:28:01;;;;;;;4.20;1.95;;;;;;;;;;20215897;29;20510;-88
2022/03/30 00:38:03;;;;;;;3.42;2.38;;;;;;;;;;20230060;29;20053;-88
2022/03/30 00:48:05;;;;;;;3.67;2.10;;;;;;;;;;20217923;29;20561;-88
2022/03/30 00:58:07;;;;;;;4.10;2.53;;;;;;;;;;20222835;29;20052;-89
2022/03/30 01:08:09;;;;;;;3.22;1.85;;;;;;;;;;20231183;29;20045;-88
2022/03/30 01:18:11;;;;;;;3.00;2.13;;;;;;;;;;20210401;29;20052;-88
2022/03/30 01:28:12;;;;;;;2.75;1.92;;;;;;;;;;20229890;29;20052;-89
2022/03/30 01:38:14;;;;;;;2.40;1.73;;;;;;;;;;20213955;29;20091;-89
2022/03/30 01:48:16;;;;;;;2.97;2.10;;;;;;;;;;20233085;29;20403;-89
2022/03/30 01:58:18;;;;;;;3.17;2.05;;;;;;;;;;20220886;29;20052;-89
2022/03/30 02:08:19;;;;;;;2.47;1.88;;;;;;;;;;20226519;29;20048;-88
2022/03/30 02:18:21;;;;;;;3.35;2.10;;;;;;;;;;20180704;29;20073;-90
2022/03/30 02:28:23;;;;;;;2.33;1.92;;;;;;;;;;20203352;29;20112;-90
2022/03/30 02:38:24;;;;;;;2.55;2.00;;;;;;;;;;20186005;29;20151;-87
2022/03/30 02:48:29;;;;;;;3.63;2.28;;;;;;;;;;20172715;29;20139;-89
2022/03/30 02:58:31;;;;;;;2.70;1.90;;;;;;;;;;20239444;29;20057;-88
2022/03/30 03:08:33;;;;;;;2.80;2.00;;;;;;;;;;20217192;29;20403;-88
2022/03/30 03:18:37;;;;;;;3.28;2.05;;;;;;;;;;20178430;29;20068;-89
2022/03/30 03:28:53;;;;;;;3.00;1.88;;;;;;;;;;20201187;29;20139;-89
2022/03/30 03:38:55;;;;;;;2.95;1.92;;;;;;;;;;20242529;29;20053;-89
2022/03/30 03:48:56;;;;;;;3.28;2.13;;;;;;;;;;20222092;29;20508;-89
2022/03/30 03:58:58;;;;;;;4.20;2.20;;;;;;;;;;20173567;29;20041;-89
2022/03/30 04:08:59;;;;;;;3.95;2.42;;;;;;;;;;20193667;29;20049;-89
2022/03/30 04:19:02;;;;;;;3.33;2.15;;;;;;;;;;20204530;29;20055;-88
2022/03/30 04:29:04;;;;;;;3.50;2.22;;;;;;;;;;20211873;29;20066;-89
2022/03/30 04:39:06;;;;;;;3.25;2.10;;;;;;;;;;20185407;29;20059;-88
2022/03/30 04:49:09;;;;;;;2.55;2.13;;;;;;;;;;20237881;29;20076;-89
2022/03/30 04:59:10;;;;;;;2.63;1.73;;;;;;;;;;20199090;29;20037;-88
2022/03/30 05:09:12;;;;;;;2.63;1.80;;;;;;;;;;20179917;29;20070;-88
2022/03/30 05:19:14;;;;;;;3.58;1.77;;;;;;;;;;20178720;29;20195;-89
2022/03/30 05:29:16;;;;;;;2.63;1.63;;;;;;;;;;20182754;29;20100;-90
2022/03/30 05:39:18;;;;;;;3.15;1.75;;;;;;;;;;20181106;29;20053;-89
2022/03/30 05:49:20;;;;;;;2.58;1.70;;;;;;;;;;20166793;29;20044;-91
2022/03/30 05:59:21;;;;;;;3.05;1.83;;;;;;;;;;20238522;29;20095;-88
2022/03/30 06:09:23;;;;;;;1.70;1.17;;;;;;;;;;20257131;29;20063;-90
2022/03/30 06:19:40;;;;;;;1.88;1.17;;;;;;;;;;20274306;29;20053;-90
2022/03/30 06:29:43;;;;;;;1.75;0.90;;;;;;;;;;20241261;29;20052;-88
2022/03/30 06:39:45;;;;;;;1.08;0.80;;;;;;;;;;20255824;29;20070;-89
2022/03/30 06:49:46;;;;;;;1.10;0.75;;;;;;;;;;20254451;29;20419;-88
2022/03/30 06:59:48;;;;;;;1.40;0.88;;;;;;;;;;20239045;29;20060;-87
2022/03/30 07:20:11;;;;;;;1.50;0.80;;;;;;;;;;20252545;29;20490;-88
2022/03/30 07:30:13;;;;;;;0.98;0.73;;;;;;;;;;20268642;29;20053;-88
2022/03/30 07:40:17;;;;;;;0.70;0.47;;;;;;;;;;20251069;29;20407;-88
2022/03/30 07:50:19;;;;;;;1.25;0.80;;;;;;;;;;20258646;29;20400;-88
2022/03/30 08:00:21;;;;;;;1.25;0.70;;;;;;;;;;20249748;29;20052;-89
2022/03/30 08:10:23;;;;;;;0.82;0.40;;;;;;;;;;20249395;29;20053;-87
2022/03/30 08:30:48;;;;;;;0.50;0.40;;;;;;;;;;20251257;29;20221;-88
2022/03/30 08:40:52;;;;;;;0.85;0.70;;;;;;;;;;20248201;29;20052;-87
2022/03/30 08:50:54;;;;;;;0.95;0.60;;;;;;;;;;20232212;29;20488;-87
2022/03/30 09:01:06;;;;;;;0.43;0.40;;;;;;;;;;20263523;29;20048;-87
2022/03/30 09:11:08;;;;;;;1.38;0.57;;;;;;;;;;20256057;29;20057;-87
2022/03/30 09:21:09;;;;;;;1.05;0.35;;;;;;;;;;20261409;29;20080;-87
2022/03/30 09:31:11;;;;;;;0.50;0.30;;;;;;;;;;20260896;29;20076;-87
2022/03/30 09:41:13;;;;;;;0.55;0.32;;;;;;;;;;20276596;29;20044;-87
2022/03/30 09:51:15;;;;;;;0.80;0.40;;;;;;;;;;20244202;29;20056;-87
2022/03/30 10:01:22;;;;;;;0.38;0.38;;;;;;;;;;20275075;29;20570;-86
2022/03/30 10:11:25;;;;;;;0.75;0.40;;;;;;;;;;20258209;29;20796;-87
2022/03/30 10:21:54;;;;;;;0.93;0.25;;;;;;;;;;20257201;29;20076;-88
2022/03/30 10:32:12;;;;;;;0.77;0.43;;;;;;;;;;20270496;29;20487;-89
2022/03/30 10:42:14;;;;;;;0.93;0.45;;;;;;;;;;20272322;29;20048;-89
2022/03/30 10:52:32;;;;;;;0.63;0.40;;;;;;;;;;20254977;29;20061;-88
2022/03/30 11:02:40;;;;;;;0.30;0.30;;;;;;;;;;20253826;29;20399;-88
2022/03/30 11:12:56;;;;;;;0.40;0.30;;;;;;;;;;20243578;29;20504;-87
2022/03/30 11:23:18;;;;;;;0.98;0.38;;;;;;;;;;20194907;29;20056;-87
2022/03/30 11:33:22;;;;;;;0.93;0.30;;;;;;;;;;20225642;29;20442;-88
2022/03/30 11:43:24;;;;;;;0.50;0.30;;;;;;;;;;20251100;29;20139;-87
2022/03/30 11:53:36;;;;;;;1.13;0.63;;;;;;;;;;20231299;29;20140;-87
2022/03/30 12:03:38;;;;;;;0.70;0.30;;;;;;;;;;20266284;29;20057;-87
2022/03/30 12:13:41;;;;;;;1.00;0.32;;;;;;;;;;20266002;29;20465;-87
2022/03/30 12:23:52;;;;;;;0.75;0.20;;;;;;;;;;20242833;29;20060;-87
2022/03/30 12:34:15;;;;;;;1.00;0.30;;;;;;;;;;20234217;29;20083;-87
2022/03/30 12:44:19;;;;;;;1.20;0.30;;;;;;;;;;20208407;29;20041;-87
2022/03/30 12:54:21;;;;;;;1.88;0.30;;;;;;;;;;20224987;29;20079;-87
2022/03/30 13:04:25;;;;;;;0.43;0.30;;;;;;;;;;20220198;29;20143;-87
2022/03/30 13:14:27;;;;;;;1.38;0.40;;;;;;;;;;20261397;29;20063;-88
2022/03/30 13:24:33;;;;;;;0.73;0.20;;;;;;;;;;20227444;29;20492;-86
2022/03/30 13:34:35;;;;;;;0.70;0.30;;;;;;;;;;20201068;29;20068;-87
2022/03/30 13:44:57;;;;;;;1.85;0.40;;;;;;;;;;20168038;29;20045;-88
2022/03/30 13:54:59;;;;;;;1.23;0.35;;;;;;;;;;20168426;29;20052;-89
2022/03/30 14:05:00;;;;;;;0.50;0.30;;;;;;;;;;20197690;29;20045;-88
2022/03/30 14:15:03;;;;;;;0.65;0.30;;;;;;;;;;20164955;29;20057;-87
2022/03/30 14:25:05;;;;;;;0.25;0.20;;;;;;;;;;20196595;29;20136;-87
2022/03/30 14:35:07;;;;;;;0.63;0.28;;;;;;;;;;20195642;29;20063;-88
2022/03/30 14:45:16;;;;;;;0.32;0.28;;;;;;;;;;20178247;29;20455;-87
2022/03/30 14:55:18;;;;;;;0.10;0.10;;;;;;;;;;20177517;29;20145;-88
2022/03/30 15:05:19;;;;;;;1.27;0.30;;;;;;;;;;20175972;29;20488;-89
2022/03/30 15:15:24;;;;;;;0.63;0.20;;;;;;;;;;20176018;29;20152;-87
2022/03/30 15:25:26;;;;;;;0.98;0.30;;;;;;;;;;20175328;29;20105;-88
2022/03/30 15:35:28;;;;;;;0.20;0.20;;;;;;;;;;20180494;29;20514;-88
2022/03/30 15:45:32;;;;;;;0.43;0.20;;;;;;;;;;20189860;29;20053;-88
2022/03/30 15:55:35;;;;;;;0.20;0.20;;;;;;;;;;20189618;29;20053;-88
2022/03/30 16:05:37;;;;;;;1.20;0.40;;;;;;;;;;20201140;29;20063;-81
2022/03/30 16:15:39;;;;;;;0.65;0.30;;;;;;;;;;20252621;29;20057;-86
2022/03/30 16:25:41;;;;;;;1.05;0.30;;;;;;;;;;20248499;29;20045;-87
2022/03/30 16:35:43;;;;;;;0.30;0.30;;;;;;;;;;20264375;29;20083;-87
2022/03/30 16:45:45;;;;;;;0.75;0.32;;;;;;;;;;20247588;29;20053;-87
2022/03/30 16:55:47;;;;;;;0.60;0.30;;;;;;;;;;20263653;29;20052;-88
2022/03/30 17:05:50;;;;;;;0.20;0.20;;;;;;;;;;20231725;29;20080;-88
2022/03/30 17:15:52;;;;;;;0.43;0.30;;;;;;;;;;20235082;29;20057;-87
2022/03/30 17:25:54;;;;;;;0.52;0.30;;;;;;;;;;20078943;29;20058;-88
2022/03/30 17:35:56;;;;;;;0.90;0.47;;;;;;;;;;20107997;29;20415;-88
2022/03/30 17:45:58;;;;;;;0.60;0.30;;;;;;;;;;20105806;29;20048;-88
2022/03/30 17:56:03;;;;;;;0.65;0.30;;;;;;;;;;20121866;29;20058;-88
2022/03/30 18:06:04;;;;;;;1.15;0.20;;;;;;;;;;20121001;29;20049;-89
2022/03/30 18:16:07;;;;;;;1.33;0.50;;;;;;;;;;20103725;29;20114;-88
2022/03/30 18:26:09;;;;;;;1.23;0.50;;;;;;;;;;20102992;29;20053;-87
2022/03/30 18:36:12;;;;;;;0.55;0.30;;;;;;;;;;20088755;29;20408;-87
2022/03/30 18:46:15;;;;;;;1.00;0.40;;;;;;;;;;20101616;29;20077;-88
2022/03/30 18:56:27;;;;;;;1.13;0.38;;;;;;;;;;20087592;29;20069;-84
2022/03/30 19:06:39;;;;;;;2.15;0.38;;;;;;;;;;20152516;29;20049;-83
2022/03/30 19:16:41;;;;;;;0.47;0.30;;;;;;;;;;20201033;29;20059;-85
2022/03/30 19:26:43;;;;;;;1.10;0.30;;;;;;;;;;20214269;29;20056;-85
2022/03/30 19:36:45;;;;;;;2.17;0.40;;;;;;;;;;20206876;29;20084;-85
2022/03/30 19:46:47;;;;;;;0.30;0.30;;;;;;;;;;20199589;29;20053;-86
2022/03/30 19:56:48;;;;;;;1.20;0.70;;;;;;;;;;20173849;29;20069;-86
2022/03/30 20:06:50;;;;;;;0.85;0.40;;;;;;;;;;20173430;29;20057;-86
2022/03/30 20:16:52;;;;;;;1.15;0.55;;;;;;;;;;20156846;29;20056;-86
2022/03/30 20:26:54;;;;;;;0.65;0.40;;;;;;;;;;20189970;29;20056;-86
2022/03/30 20:36:56;;;;;;;1.60;0.40;;;;;;;;;;20234672;29;20052;-86
2022/03/30 20:46:58;;;;;;;1.30;0.30;;;;;;;;;;20197760;29;20522;-86
2022/03/30 20:57:05;;;;;;;0.82;0.52;;;;;;;;;;20185365;29;20057;-86
2022/03/30 21:07:07;;;;;;;0.70;0.30;;;;;;;;;;20194721;29;20139;-86
2022/03/30 21:17:09;;;;;;;0.32;0.30;;;;;;;;;;20173921;29;20068;-86
2022/03/30 21:27:11;;;;;;;0.65;0.30;;;;;;;;;;20186396;29;20041;-86
2022/03/30 21:37:13;;;;;;;0.93;0.20;;;;;;;;;;20201711;29;20135;-85
2022/03/30 21:47:15;;;;;;;0.98;0.28;;;;;;;;;;20196335;29;20082;-85
2022/03/30 21:57:17;;;;;;;1.00;0.43;;;;;;;;;;20223654;29;20120;-86
2022/03/30 22:07:19;;;;;;;1.00;0.32;;;;;;;;;;20199701;29;20143;-85
2022/03/30 22:17:20;;;;;;;0.77;0.30;;;;;;;;;;20235642;29;20152;-86
2022/03/30 22:27:23;;;;;;;0.80;0.43;;;;;;;;;;20182222;29;20080;-85
2022/03/30 22:37:25;;;;;;;1.05;0.40;;;;;;;;;;20181304;29;20057;-86
2022/03/30 22:47:27;;;;;;;0.50;0.30;;;;;;;;;;20179748;29;20077;-86
2022/03/30 22:57:29;;;;;;;0.30;0.20;;;;;;;;;;20164656;29;20053;-84
2022/03/30 23:17:51;;;;;;;0.55;0.30;;;;;;;;;;20263029;29;20427;-83
2022/03/30 23:27:53;;;;;;;0.65;0.22;;;;;;;;;;20193185;29;20080;-84
2022/03/30 23:37:59;;;;;;;0.30;0.20;;;;;;;;;;20188240;29;20488;-85
2022/03/30 23:48:01;;;;;;;0.40;0.35;;;;;;;;;;20160541;29;20052;-86
2022/03/30 23:58:04;;;;;;;0.75;0.20;;;;;;;;;;20192546;29;20057;-86
